sensor_id;sensor_type;location;lat;lon;timestamp;P1;durP1;ratioP1;P2;durP2;ratioP2
72621;SDS011;60665;53.506;9.582;2023-08-08T00:00:15;5.82;;;1.25;;
72621;SDS011;60665;53.506;9.582;2023-08-08T00:02:40;5.65;;;1.17;;
72621;SDS011;60665;53.506;9.582;2023-08-08T00:05:06;3.75;;;1.17;;
72621;SDS011;60665;53.506;9.582;2023-08-08T00:07:32;4.22;;;1.25;;
72621;SDS011;60665;53.506;9.582;2023-08-08T00:09:57;5.40;;;1.83;;
72621;SDS011;60665;53.506;9.582;2023-08-08T00:12:23;5.30;;;1.48;;
72621;SDS011;60665;53.506;9.582;2023-08-08T00:14:48;5.47;;;1.30;;
72621;SDS011;60665;53.506;9.582;2023-08-08T00:17:14;5.68;;;1.35;;
72621;SDS011;60665;53.506;9.582;2023-08-08T00:19:39;7.07;;;1.15;;
72621;SDS011;60665;53.506;9.582;2023-08-08T00:22:05;5.20;;;1.40;;
72621;SDS011;60665;53.506;9.582;2023-08-08T00:24:31;4.82;;;1.50;;
72621;SDS011;60665;53.506;9.582;2023-08-08T00:26:56;6.15;;;1.33;;
72621;SDS011;60665;53.506;9.582;2023-08-08T00:29:22;4.88;;;1.30;;
72621;SDS011;60665;53.506;9.582;2023-08-08T00:31:47;5.70;;;1.48;;
72621;SDS011;60665;53.506;9.582;2023-08-08T00:34:12;5.57;;;1.30;;
72621;SDS011;60665;53.506;9.582;2023-08-08T00:36:38;3.85;;;1.25;;
72621;SDS011;60665;53.506;9.582;2023-08-08T00:39:03;5.50;;;1.23;;
72621;SDS011;60665;53.506;9.582;2023-08-08T00:41:28;5.68;;;1.42;;
72621;SDS011;60665;53.506;9.582;2023-08-08T00:43:54;7.00;;;1.40;;
72621;SDS011;60665;53.506;9.582;2023-08-08T00:46:20;5.35;;;1.48;;
72621;SDS011;60665;53.506;9.582;2023-08-08T00:48:46;4.45;;;1.38;;
72621;SDS011;60665;53.506;9.582;2023-08-08T00:51:12;11.43;;;1.50;;
72621;SDS011;60665;53.506;9.582;2023-08-08T00:53:38;6.57;;;1.40;;
72621;SDS011;60665;53.506;9.582;2023-08-08T00:56:03;3.72;;;1.63;;
72621;SDS011;60665;53.506;9.582;2023-08-08T00:58:30;7.13;;;1.25;;
72621;SDS011;60665;53.506;9.582;2023-08-08T01:00:55;4.30;;;1.63;;
72621;SDS011;60665;53.506;9.582;2023-08-08T01:03:24;5.03;;;1.38;;
72621;SDS011;60665;53.506;9.582;2023-08-08T01:06:01;4.82;;;1.20;;
72621;SDS011;60665;53.506;9.582;2023-08-08T01:08:39;7.70;;;1.23;;
72621;SDS011;60665;53.506;9.582;2023-08-08T01:11:09;6.53;;;1.27;;
72621;SDS011;60665;53.506;9.582;2023-08-08T01:13:34;5.00;;;1.35;;
72621;SDS011;60665;53.506;9.582;2023-08-08T01:16:01;4.90;;;1.13;;
72621;SDS011;60665;53.506;9.582;2023-08-08T01:18:28;5.85;;;1.20;;
72621;SDS011;60665;53.506;9.582;2023-08-08T01:20:54;4.50;;;1.00;;
72621;SDS011;60665;53.506;9.582;2023-08-08T01:23:25;6.47;;;1.45;;
72621;SDS011;60665;53.506;9.582;2023-08-08T01:25:56;3.97;;;1.02;;
72621;SDS011;60665;53.506;9.582;2023-08-08T01:28:23;4.53;;;1.20;;
72621;SDS011;60665;53.506;9.582;2023-08-08T01:30:49;4.50;;;1.30;;
72621;SDS011;60665;53.506;9.582;2023-08-08T01:33:15;3.92;;;1.05;;
72621;SDS011;60665;53.506;9.582;2023-08-08T01:35:42;3.95;;;1.10;;
72621;SDS011;60665;53.506;9.582;2023-08-08T01:40:42;5.68;;;1.23;;
72621;SDS011;60665;53.506;9.582;2023-08-08T01:43:08;3.95;;;0.90;;
72621;SDS011;60665;53.506;9.582;2023-08-08T01:45:34;6.40;;;1.20;;
72621;SDS011;60665;53.506;9.582;2023-08-08T01:48:05;4.43;;;0.90;;
72621;SDS011;60665;53.506;9.582;2023-08-08T01:50:31;4.38;;;0.90;;
72621;SDS011;60665;53.506;9.582;2023-08-08T01:52:57;4.28;;;0.93;;
72621;SDS011;60665;53.506;9.582;2023-08-08T01:55:22;4.53;;;0.73;;
72621;SDS011;60665;53.506;9.582;2023-08-08T01:57:47;2.78;;;0.90;;
72621;SDS011;60665;53.506;9.582;2023-08-08T02:00:13;3.97;;;0.93;;
72621;SDS011;60665;53.506;9.582;2023-08-08T02:02:38;5.45;;;1.30;;
72621;SDS011;60665;53.506;9.582;2023-08-08T02:05:04;4.38;;;0.80;;
72621;SDS011;60665;53.506;9.582;2023-08-08T02:07:30;3.95;;;0.90;;
72621;SDS011;60665;53.506;9.582;2023-08-08T02:09:55;4.32;;;1.27;;
72621;SDS011;60665;53.506;9.582;2023-08-08T02:12:21;3.55;;;0.75;;
72621;SDS011;60665;53.506;9.582;2023-08-08T02:14:46;3.42;;;0.90;;
72621;SDS011;60665;53.506;9.582;2023-08-08T02:17:11;3.85;;;0.80;;
72621;SDS011;60665;53.506;9.582;2023-08-08T02:19:37;5.65;;;1.17;;
72621;SDS011;60665;53.506;9.582;2023-08-08T02:22:02;5.75;;;1.08;;
72621;SDS011;60665;53.506;9.582;2023-08-08T02:24:27;4.03;;;0.88;;
72621;SDS011;60665;53.506;9.582;2023-08-08T02:26:53;3.20;;;1.00;;
72621;SDS011;60665;53.506;9.582;2023-08-08T02:29:18;2.75;;;0.95;;
72621;SDS011;60665;53.506;9.582;2023-08-08T02:31:44;5.95;;;1.10;;
72621;SDS011;60665;53.506;9.582;2023-08-08T02:34:09;3.22;;;0.90;;
72621;SDS011;60665;53.506;9.582;2023-08-08T02:36:34;6.63;;;0.90;;
72621;SDS011;60665;53.506;9.582;2023-08-08T02:39:00;5.95;;;1.10;;
72621;SDS011;60665;53.506;9.582;2023-08-08T02:41:25;5.15;;;1.00;;
72621;SDS011;60665;53.506;9.582;2023-08-08T02:43:50;4.18;;;1.00;;
72621;SDS011;60665;53.506;9.582;2023-08-08T02:46:16;3.17;;;0.98;;
72621;SDS011;60665;53.506;9.582;2023-08-08T02:48:41;4.95;;;1.20;;
72621;SDS011;60665;53.506;9.582;2023-08-08T02:51:07;3.92;;;1.13;;
72621;SDS011;60665;53.506;9.582;2023-08-08T02:53:32;4.82;;;0.98;;
72621;SDS011;60665;53.506;9.582;2023-08-08T02:55:57;4.55;;;1.00;;
72621;SDS011;60665;53.506;9.582;2023-08-08T02:58:23;6.05;;;0.98;;
72621;SDS011;60665;53.506;9.582;2023-08-08T03:00:48;4.88;;;1.20;;
72621;SDS011;60665;53.506;9.582;2023-08-08T03:03:14;4.40;;;0.93;;
72621;SDS011;60665;53.506;9.582;2023-08-08T03:05:40;5.45;;;1.00;;
72621;SDS011;60665;53.506;9.582;2023-08-08T03:08:06;6.05;;;1.20;;
72621;SDS011;60665;53.506;9.582;2023-08-08T03:10:32;3.97;;;0.90;;
72621;SDS011;60665;53.506;9.582;2023-08-08T03:12:57;4.65;;;1.08;;
72621;SDS011;60665;53.506;9.582;2023-08-08T03:15:23;4.88;;;1.00;;
72621;SDS011;60665;53.506;9.582;2023-08-08T03:17:48;2.80;;;0.90;;
72621;SDS011;60665;53.506;9.582;2023-08-08T03:20:13;6.15;;;1.15;;
72621;SDS011;60665;53.506;9.582;2023-08-08T03:22:39;5.55;;;1.23;;
72621;SDS011;60665;53.506;9.582;2023-08-08T03:25:04;2.35;;;0.90;;
72621;SDS011;60665;53.506;9.582;2023-08-08T03:27:30;4.82;;;0.80;;
72621;SDS011;60665;53.506;9.582;2023-08-08T03:29:55;3.67;;;0.95;;
72621;SDS011;60665;53.506;9.582;2023-08-08T03:32:21;7.15;;;1.48;;
72621;SDS011;60665;53.506;9.582;2023-08-08T03:34:47;3.08;;;1.05;;
72621;SDS011;60665;53.506;9.582;2023-08-08T03:37:12;3.03;;;1.05;;
72621;SDS011;60665;53.506;9.582;2023-08-08T03:39:38;3.58;;;0.90;;
72621;SDS011;60665;53.506;9.582;2023-08-08T03:42:03;2.40;;;0.88;;
72621;SDS011;60665;53.506;9.582;2023-08-08T03:44:29;1.67;;;0.68;;
72621;SDS011;60665;53.506;9.582;2023-08-08T03:46:54;3.10;;;1.00;;
72621;SDS011;60665;53.506;9.582;2023-08-08T03:49:20;4.18;;;1.10;;
72621;SDS011;60665;53.506;9.582;2023-08-08T03:51:45;5.40;;;0.90;;
72621;SDS011;60665;53.506;9.582;2023-08-08T03:54:12;3.17;;;0.98;;
72621;SDS011;60665;53.506;9.582;2023-08-08T03:56:37;3.55;;;0.88;;
72621;SDS011;60665;53.506;9.582;2023-08-08T03:59:03;3.53;;;1.02;;
72621;SDS011;60665;53.506;9.582;2023-08-08T04:01:28;9.38;;;1.42;;
72621;SDS011;60665;53.506;9.582;2023-08-08T04:03:54;3.20;;;0.85;;
72621;SDS011;60665;53.506;9.582;2023-08-08T04:06:19;3.55;;;0.95;;
72621;SDS011;60665;53.506;9.582;2023-08-08T04:08:44;4.80;;;0.90;;
72621;SDS011;60665;53.506;9.582;2023-08-08T04:11:10;4.45;;;0.90;;
72621;SDS011;60665;53.506;9.582;2023-08-08T04:13:35;2.78;;;0.73;;
72621;SDS011;60665;53.506;9.582;2023-08-08T04:16:01;4.88;;;1.10;;
72621;SDS011;60665;53.506;9.582;2023-08-08T04:18:27;2.97;;;0.93;;
72621;SDS011;60665;53.506;9.582;2023-08-08T04:20:52;5.43;;;1.17;;
72621;SDS011;60665;53.506;9.582;2023-08-08T04:23:18;3.40;;;0.82;;
72621;SDS011;60665;53.506;9.582;2023-08-08T04:25:44;4.00;;;1.02;;
72621;SDS011;60665;53.506;9.582;2023-08-08T04:28:09;3.55;;;0.90;;
72621;SDS011;60665;53.506;9.582;2023-08-08T04:30:35;4.15;;;1.30;;
72621;SDS011;60665;53.506;9.582;2023-08-08T04:33:00;2.92;;;1.42;;
72621;SDS011;60665;53.506;9.582;2023-08-08T04:35:26;3.80;;;0.90;;
72621;SDS011;60665;53.506;9.582;2023-08-08T04:37:51;2.47;;;0.98;;
72621;SDS011;60665;53.506;9.582;2023-08-08T04:40:16;3.63;;;1.05;;
72621;SDS011;60665;53.506;9.582;2023-08-08T04:42:42;2.17;;;0.90;;
72621;SDS011;60665;53.506;9.582;2023-08-08T04:45:08;2.22;;;0.80;;
72621;SDS011;60665;53.506;9.582;2023-08-08T04:47:33;2.42;;;0.88;;
72621;SDS011;60665;53.506;9.582;2023-08-08T04:49:59;3.80;;;1.10;;
72621;SDS011;60665;53.506;9.582;2023-08-08T04:52:24;3.67;;;0.90;;
72621;SDS011;60665;53.506;9.582;2023-08-08T04:54:49;3.55;;;1.05;;
72621;SDS011;60665;53.506;9.582;2023-08-08T04:57:15;3.25;;;0.80;;
72621;SDS011;60665;53.506;9.582;2023-08-08T04:59:40;3.53;;;0.88;;
72621;SDS011;60665;53.506;9.582;2023-08-08T05:02:07;3.70;;;0.90;;
72621;SDS011;60665;53.506;9.582;2023-08-08T05:04:33;3.53;;;1.27;;
72621;SDS011;60665;53.506;9.582;2023-08-08T05:06:58;2.58;;;0.88;;
72621;SDS011;60665;53.506;9.582;2023-08-08T05:09:23;3.13;;;0.98;;
72621;SDS011;60665;53.506;9.582;2023-08-08T05:11:51;6.32;;;1.00;;
72621;SDS011;60665;53.506;9.582;2023-08-08T05:14:17;2.85;;;0.77;;
72621;SDS011;60665;53.506;9.582;2023-08-08T05:16:43;3.58;;;0.98;;
72621;SDS011;60665;53.506;9.582;2023-08-08T05:19:08;4.03;;;1.00;;
72621;SDS011;60665;53.506;9.582;2023-08-08T05:21:34;3.40;;;0.88;;
72621;SDS011;60665;53.506;9.582;2023-08-08T05:23:59;2.83;;;0.77;;
72621;SDS011;60665;53.506;9.582;2023-08-08T05:26:25;1.98;;;0.80;;
72621;SDS011;60665;53.506;9.582;2023-08-08T05:28:50;2.35;;;0.90;;
72621;SDS011;60665;53.506;9.582;2023-08-08T05:31:16;4.65;;;1.10;;
72621;SDS011;60665;53.506;9.582;2023-08-08T05:33:41;3.22;;;1.10;;
72621;SDS011;60665;53.506;9.582;2023-08-08T05:36:07;3.50;;;0.88;;
72621;SDS011;60665;53.506;9.582;2023-08-08T05:38:32;4.65;;;1.23;;
72621;SDS011;60665;53.506;9.582;2023-08-08T05:40:57;4.10;;;1.20;;
72621;SDS011;60665;53.506;9.582;2023-08-08T05:43:23;2.30;;;1.00;;
72621;SDS011;60665;53.506;9.582;2023-08-08T05:45:48;5.32;;;1.17;;
72621;SDS011;60665;53.506;9.582;2023-08-08T05:48:14;4.78;;;1.30;;
72621;SDS011;60665;53.506;9.582;2023-08-08T05:50:39;3.17;;;1.10;;
72621;SDS011;60665;53.506;9.582;2023-08-08T05:53:05;3.17;;;1.23;;
72621;SDS011;60665;53.506;9.582;2023-08-08T05:55:31;3.80;;;1.30;;
72621;SDS011;60665;53.506;9.582;2023-08-08T05:57:57;3.60;;;1.50;;
72621;SDS011;60665;53.506;9.582;2023-08-08T06:00:22;5.63;;;1.70;;
72621;SDS011;60665;53.506;9.582;2023-08-08T06:02:48;3.92;;;1.20;;
72621;SDS011;60665;53.506;9.582;2023-08-08T06:05:13;3.58;;;1.25;;
72621;SDS011;60665;53.506;9.582;2023-08-08T06:07:40;3.72;;;1.33;;
72621;SDS011;60665;53.506;9.582;2023-08-08T06:10:05;4.82;;;1.33;;
72621;SDS011;60665;53.506;9.582;2023-08-08T06:12:33;5.80;;;1.33;;
72621;SDS011;60665;53.506;9.582;2023-08-08T06:14:58;5.25;;;1.70;;
72621;SDS011;60665;53.506;9.582;2023-08-08T06:17:24;4.18;;;1.10;;
72621;SDS011;60665;53.506;9.582;2023-08-08T06:19:49;4.85;;;1.23;;
72621;SDS011;60665;53.506;9.582;2023-08-08T06:22:15;4.93;;;1.25;;
72621;SDS011;60665;53.506;9.582;2023-08-08T06:24:41;4.90;;;1.10;;
72621;SDS011;60665;53.506;9.582;2023-08-08T06:27:06;3.72;;;1.35;;
72621;SDS011;60665;53.506;9.582;2023-08-08T06:29:32;4.40;;;1.17;;
72621;SDS011;60665;53.506;9.582;2023-08-08T06:31:57;5.03;;;1.30;;
72621;SDS011;60665;53.506;9.582;2023-08-08T06:34:23;2.30;;;0.80;;
72621;SDS011;60665;53.506;9.582;2023-08-08T06:36:48;2.40;;;0.80;;
72621;SDS011;60665;53.506;9.582;2023-08-08T06:39:14;3.60;;;0.95;;
72621;SDS011;60665;53.506;9.582;2023-08-08T06:41:40;3.67;;;1.25;;
72621;SDS011;60665;53.506;9.582;2023-08-08T06:44:06;2.58;;;0.90;;
72621;SDS011;60665;53.506;9.582;2023-08-08T06:46:32;4.03;;;1.00;;
72621;SDS011;60665;53.506;9.582;2023-08-08T06:48:57;2.20;;;0.70;;
72621;SDS011;60665;53.506;9.582;2023-08-08T06:51:24;2.47;;;0.90;;
72621;SDS011;60665;53.506;9.582;2023-08-08T06:53:50;2.78;;;0.90;;
72621;SDS011;60665;53.506;9.582;2023-08-08T06:56:16;4.53;;;1.13;;
72621;SDS011;60665;53.506;9.582;2023-08-08T06:58:41;2.53;;;0.80;;
72621;SDS011;60665;53.506;9.582;2023-08-08T07:01:06;3.38;;;0.77;;
72621;SDS011;60665;53.506;9.582;2023-08-08T07:03:32;3.65;;;0.80;;
72621;SDS011;60665;53.506;9.582;2023-08-08T07:05:57;2.83;;;0.82;;
72621;SDS011;60665;53.506;9.582;2023-08-08T07:08:23;3.90;;;0.80;;
72621;SDS011;60665;53.506;9.582;2023-08-08T07:10:48;3.70;;;0.80;;
72621;SDS011;60665;53.506;9.582;2023-08-08T07:13:14;4.68;;;1.02;;
72621;SDS011;60665;53.506;9.582;2023-08-08T07:15:40;3.65;;;0.88;;
72621;SDS011;60665;53.506;9.582;2023-08-08T07:18:06;2.60;;;0.95;;
72621;SDS011;60665;53.506;9.582;2023-08-08T07:20:31;5.97;;;1.52;;
72621;SDS011;60665;53.506;9.582;2023-08-08T07:22:56;4.32;;;1.27;;
72621;SDS011;60665;53.506;9.582;2023-08-08T07:25:22;5.30;;;1.00;;
72621;SDS011;60665;53.506;9.582;2023-08-08T07:27:47;5.43;;;1.10;;
72621;SDS011;60665;53.506;9.582;2023-08-08T07:30:13;6.75;;;1.45;;
72621;SDS011;60665;53.506;9.582;2023-08-08T07:32:38;2.55;;;0.88;;
72621;SDS011;60665;53.506;9.582;2023-08-08T07:35:04;4.53;;;0.93;;
72621;SDS011;60665;53.506;9.582;2023-08-08T07:37:33;2.00;;;0.85;;
72621;SDS011;60665;53.506;9.582;2023-08-08T07:39:59;3.70;;;0.98;;
72621;SDS011;60665;53.506;9.582;2023-08-08T07:42:25;4.40;;;1.02;;
72621;SDS011;60665;53.506;9.582;2023-08-08T07:44:51;5.30;;;1.08;;
72621;SDS011;60665;53.506;9.582;2023-08-08T07:47:16;3.60;;;1.05;;
72621;SDS011;60665;53.506;9.582;2023-08-08T07:49:41;4.40;;;1.13;;
72621;SDS011;60665;53.506;9.582;2023-08-08T07:52:07;6.45;;;1.30;;
72621;SDS011;60665;53.506;9.582;2023-08-08T07:54:32;5.40;;;1.55;;
72621;SDS011;60665;53.506;9.582;2023-08-08T07:56:58;4.85;;;1.25;;
72621;SDS011;60665;53.506;9.582;2023-08-08T07:59:24;5.20;;;1.10;;
72621;SDS011;60665;53.506;9.582;2023-08-08T08:01:49;7.95;;;1.33;;
72621;SDS011;60665;53.506;9.582;2023-08-08T08:04:14;9.57;;;1.40;;
72621;SDS011;60665;53.506;9.582;2023-08-08T08:06:40;3.17;;;1.08;;
72621;SDS011;60665;53.506;9.582;2023-08-08T08:09:05;3.88;;;1.27;;
72621;SDS011;60665;53.506;9.582;2023-08-08T08:11:31;4.05;;;1.10;;
72621;SDS011;60665;53.506;9.582;2023-08-08T08:13:56;3.95;;;0.90;;
72621;SDS011;60665;53.506;9.582;2023-08-08T08:16:21;4.38;;;1.08;;
72621;SDS011;60665;53.506;9.582;2023-08-08T08:18:47;3.42;;;1.58;;
72621;SDS011;60665;53.506;9.582;2023-08-08T08:21:13;4.40;;;1.10;;
72621;SDS011;60665;53.506;9.582;2023-08-08T08:23:39;3.28;;;1.00;;
72621;SDS011;60665;53.506;9.582;2023-08-08T08:26:05;3.17;;;0.73;;
72621;SDS011;60665;53.506;9.582;2023-08-08T08:28:30;2.35;;;0.70;;
72621;SDS011;60665;53.506;9.582;2023-08-08T08:30:55;5.18;;;0.90;;
72621;SDS011;60665;53.506;9.582;2023-08-08T08:33:21;7.32;;;1.30;;
72621;SDS011;60665;53.506;9.582;2023-08-08T08:35:46;2.05;;;0.60;;
72621;SDS011;60665;53.506;9.582;2023-08-08T08:38:12;2.95;;;0.70;;
72621;SDS011;60665;53.506;9.582;2023-08-08T08:40:38;3.58;;;0.70;;
72621;SDS011;60665;53.506;9.582;2023-08-08T08:43:05;1.65;;;0.60;;
72621;SDS011;60665;53.506;9.582;2023-08-08T08:45:32;1.92;;;0.50;;
72621;SDS011;60665;53.506;9.582;2023-08-08T08:48:00;3.70;;;0.88;;
72621;SDS011;60665;53.506;9.582;2023-08-08T08:50:29;3.35;;;0.63;;
72621;SDS011;60665;53.506;9.582;2023-08-08T08:52:55;3.95;;;0.63;;
72621;SDS011;60665;53.506;9.582;2023-08-08T08:55:21;2.88;;;0.60;;
72621;SDS011;60665;53.506;9.582;2023-08-08T08:57:47;2.40;;;0.52;;
72621;SDS011;60665;53.506;9.582;2023-08-08T09:00:14;2.10;;;0.55;;
72621;SDS011;60665;53.506;9.582;2023-08-08T09:02:41;4.20;;;0.70;;
72621;SDS011;60665;53.506;9.582;2023-08-08T09:05:06;1.48;;;0.47;;
72621;SDS011;60665;53.506;9.582;2023-08-08T09:07:32;4.10;;;0.65;;
72621;SDS011;60665;53.506;9.582;2023-08-08T09:09:58;1.55;;;0.38;;
72621;SDS011;60665;53.506;9.582;2023-08-08T09:12:24;3.40;;;0.80;;
72621;SDS011;60665;53.506;9.582;2023-08-08T09:14:54;3.95;;;0.90;;
72621;SDS011;60665;53.506;9.582;2023-08-08T09:17:24;3.85;;;0.88;;
72621;SDS011;60665;53.506;9.582;2023-08-08T09:19:52;4.47;;;0.75;;
72621;SDS011;60665;53.506;9.582;2023-08-08T09:22:18;2.28;;;0.68;;
72621;SDS011;60665;53.506;9.582;2023-08-08T09:24:44;4.53;;;1.10;;
72621;SDS011;60665;53.506;9.582;2023-08-08T09:27:11;3.88;;;0.73;;
72621;SDS011;60665;53.506;9.582;2023-08-08T09:29:37;3.13;;;0.73;;
72621;SDS011;60665;53.506;9.582;2023-08-08T09:32:05;2.17;;;0.65;;
72621;SDS011;60665;53.506;9.582;2023-08-08T09:34:31;2.90;;;0.65;;
72621;SDS011;60665;53.506;9.582;2023-08-08T09:36:57;3.45;;;0.63;;
72621;SDS011;60665;53.506;9.582;2023-08-08T09:39:23;2.92;;;0.45;;
72621;SDS011;60665;53.506;9.582;2023-08-08T09:41:49;2.47;;;0.50;;
72621;SDS011;60665;53.506;9.582;2023-08-08T09:44:14;2.90;;;0.80;;
72621;SDS011;60665;53.506;9.582;2023-08-08T09:46:40;5.20;;;0.73;;
72621;SDS011;60665;53.506;9.582;2023-08-08T09:49:06;3.33;;;0.80;;
72621;SDS011;60665;53.506;9.582;2023-08-08T09:51:31;2.25;;;0.73;;
72621;SDS011;60665;53.506;9.582;2023-08-08T09:53:58;3.08;;;0.77;;
72621;SDS011;60665;53.506;9.582;2023-08-08T09:56:24;1.73;;;0.60;;
72621;SDS011;60665;53.506;9.582;2023-08-08T09:58:50;1.27;;;0.55;;
72621;SDS011;60665;53.506;9.582;2023-08-08T10:01:16;3.80;;;1.15;;
72621;SDS011;60665;53.506;9.582;2023-08-08T10:03:42;5.82;;;0.82;;
72621;SDS011;60665;53.506;9.582;2023-08-08T10:06:08;3.25;;;0.93;;
72621;SDS011;60665;53.506;9.582;2023-08-08T10:08:34;2.78;;;0.50;;
72621;SDS011;60665;53.506;9.582;2023-08-08T10:10:59;4.47;;;1.00;;
72621;SDS011;60665;53.506;9.582;2023-08-08T10:13:26;2.55;;;0.70;;
72621;SDS011;60665;53.506;9.582;2023-08-08T10:15:52;3.28;;;0.63;;
72621;SDS011;60665;53.506;9.582;2023-08-08T10:18:21;2.60;;;0.73;;
72621;SDS011;60665;53.506;9.582;2023-08-08T10:20:47;2.58;;;0.90;;
72621;SDS011;60665;53.506;9.582;2023-08-08T10:23:16;2.50;;;0.80;;
72621;SDS011;60665;53.506;9.582;2023-08-08T10:25:46;2.53;;;0.70;;
72621;SDS011;60665;53.506;9.582;2023-08-08T10:28:13;4.63;;;0.70;;
72621;SDS011;60665;53.506;9.582;2023-08-08T10:30:43;2.88;;;0.60;;
72621;SDS011;60665;53.506;9.582;2023-08-08T10:33:39;3.22;;;0.73;;
72621;SDS011;60665;53.506;9.582;2023-08-08T10:36:08;5.35;;;1.00;;
72621;SDS011;60665;53.506;9.582;2023-08-08T10:38:47;3.88;;;0.70;;
72621;SDS011;60665;53.506;9.582;2023-08-08T10:41:21;4.07;;;0.75;;
72621;SDS011;60665;53.506;9.582;2023-08-08T10:43:53;2.53;;;0.70;;
72621;SDS011;60665;53.506;9.582;2023-08-08T10:46:24;3.28;;;0.60;;
72621;SDS011;60665;53.506;9.582;2023-08-08T10:48:54;3.80;;;1.00;;
72621;SDS011;60665;53.506;9.582;2023-08-08T10:51:21;6.30;;;0.85;;
72621;SDS011;60665;53.506;9.582;2023-08-08T10:53:50;1.80;;;0.50;;
72621;SDS011;60665;53.506;9.582;2023-08-08T10:56:17;3.20;;;0.60;;
72621;SDS011;60665;53.506;9.582;2023-08-08T10:58:46;1.67;;;0.52;;
72621;SDS011;60665;53.506;9.582;2023-08-08T11:01:13;3.10;;;0.50;;
72621;SDS011;60665;53.506;9.582;2023-08-08T11:03:39;2.78;;;0.80;;
72621;SDS011;60665;53.506;9.582;2023-08-08T11:06:06;3.47;;;0.60;;
72621;SDS011;60665;53.506;9.582;2023-08-08T11:08:32;2.33;;;0.60;;
72621;SDS011;60665;53.506;9.582;2023-08-08T11:10:58;1.85;;;0.50;;
72621;SDS011;60665;53.506;9.582;2023-08-08T11:13:24;3.33;;;0.60;;
72621;SDS011;60665;53.506;9.582;2023-08-08T11:15:50;4.15;;;0.75;;
72621;SDS011;60665;53.506;9.582;2023-08-08T11:18:15;3.58;;;0.52;;
72621;SDS011;60665;53.506;9.582;2023-08-08T11:20:41;1.70;;;0.50;;
72621;SDS011;60665;53.506;9.582;2023-08-08T11:23:07;3.95;;;0.50;;
72621;SDS011;60665;53.506;9.582;2023-08-08T11:25:35;2.60;;;0.63;;
72621;SDS011;60665;53.506;9.582;2023-08-08T11:28:01;2.97;;;0.60;;
72621;SDS011;60665;53.506;9.582;2023-08-08T11:30:27;2.47;;;0.65;;
72621;SDS011;60665;53.506;9.582;2023-08-08T11:32:54;3.70;;;0.70;;
72621;SDS011;60665;53.506;9.582;2023-08-08T11:35:21;2.22;;;0.80;;
72621;SDS011;60665;53.506;9.582;2023-08-08T11:37:47;2.85;;;0.82;;
72621;SDS011;60665;53.506;9.582;2023-08-08T11:40:14;3.75;;;0.65;;
72621;SDS011;60665;53.506;9.582;2023-08-08T11:42:40;3.22;;;0.60;;
72621;SDS011;60665;53.506;9.582;2023-08-08T11:45:06;6.60;;;0.75;;
72621;SDS011;60665;53.506;9.582;2023-08-08T11:47:34;1.95;;;0.60;;
72621;SDS011;60665;53.506;9.582;2023-08-08T11:50:02;4.75;;;0.80;;
72621;SDS011;60665;53.506;9.582;2023-08-08T11:52:28;4.00;;;0.70;;
72621;SDS011;60665;53.506;9.582;2023-08-08T11:54:55;4.07;;;0.90;;
72621;SDS011;60665;53.506;9.582;2023-08-08T11:57:20;3.55;;;0.90;;
72621;SDS011;60665;53.506;9.582;2023-08-08T11:59:47;5.72;;;0.90;;
72621;SDS011;60665;53.506;9.582;2023-08-08T12:02:14;4.90;;;0.65;;
72621;SDS011;60665;53.506;9.582;2023-08-08T12:04:43;2.78;;;0.90;;
72621;SDS011;60665;53.506;9.582;2023-08-08T12:07:09;4.75;;;1.15;;
72621;SDS011;60665;53.506;9.582;2023-08-08T12:09:36;3.95;;;0.93;;
72621;SDS011;60665;53.506;9.582;2023-08-08T12:12:02;5.43;;;1.00;;
72621;SDS011;60665;53.506;9.582;2023-08-08T12:14:28;3.42;;;0.63;;
72621;SDS011;60665;53.506;9.582;2023-08-08T12:16:54;3.70;;;0.70;;
72621;SDS011;60665;53.506;9.582;2023-08-08T12:19:22;3.65;;;1.02;;
72621;SDS011;60665;53.506;9.582;2023-08-08T12:21:48;4.75;;;1.08;;
72621;SDS011;60665;53.506;9.582;2023-08-08T12:24:14;5.35;;;0.82;;
72621;SDS011;60665;53.506;9.582;2023-08-08T12:26:39;3.40;;;0.90;;
72621;SDS011;60665;53.506;9.582;2023-08-08T12:29:04;5.72;;;1.02;;
72621;SDS011;60665;53.506;9.582;2023-08-08T12:31:31;3.33;;;1.13;;
72621;SDS011;60665;53.506;9.582;2023-08-08T12:33:57;2.97;;;0.80;;
72621;SDS011;60665;53.506;9.582;2023-08-08T12:36:22;7.25;;;1.20;;
72621;SDS011;60665;53.506;9.582;2023-08-08T12:38:47;2.53;;;0.90;;
72621;SDS011;60665;53.506;9.582;2023-08-08T12:41:13;5.00;;;1.10;;
72621;SDS011;60665;53.506;9.582;2023-08-08T12:43:38;5.03;;;1.20;;
72621;SDS011;60665;53.506;9.582;2023-08-08T12:46:05;5.88;;;1.40;;
72621;SDS011;60665;53.506;9.582;2023-08-08T12:48:30;4.05;;;1.30;;
72621;SDS011;60665;53.506;9.582;2023-08-08T12:50:55;5.30;;;1.10;;
72621;SDS011;60665;53.506;9.582;2023-08-08T12:53:21;5.65;;;1.10;;
72621;SDS011;60665;53.506;9.582;2023-08-08T12:55:46;6.28;;;1.10;;
72621;SDS011;60665;53.506;9.582;2023-08-08T12:58:12;5.88;;;1.30;;
72621;SDS011;60665;53.506;9.582;2023-08-08T13:00:37;3.83;;;0.98;;
72621;SDS011;60665;53.506;9.582;2023-08-08T13:03:03;3.65;;;0.90;;
72621;SDS011;60665;53.506;9.582;2023-08-08T13:05:28;5.35;;;0.90;;
72621;SDS011;60665;53.506;9.582;2023-08-08T13:07:54;6.88;;;1.40;;
72621;SDS011;60665;53.506;9.582;2023-08-08T13:10:19;3.30;;;0.82;;
72621;SDS011;60665;53.506;9.582;2023-08-08T13:12:45;6.78;;;0.98;;
72621;SDS011;60665;53.506;9.582;2023-08-08T13:15:12;6.45;;;1.00;;
72621;SDS011;60665;53.506;9.582;2023-08-08T13:17:38;6.72;;;1.30;;
72621;SDS011;60665;53.506;9.582;2023-08-08T13:20:03;4.68;;;1.33;;
72621;SDS011;60665;53.506;9.582;2023-08-08T13:22:29;4.60;;;1.17;;
72621;SDS011;60665;53.506;9.582;2023-08-08T13:24:54;5.10;;;1.10;;
72621;SDS011;60665;53.506;9.582;2023-08-08T13:27:20;5.50;;;1.02;;
72621;SDS011;60665;53.506;9.582;2023-08-08T13:29:46;8.10;;;1.27;;
72621;SDS011;60665;53.506;9.582;2023-08-08T13:32:11;7.78;;;1.25;;
72621;SDS011;60665;53.506;9.582;2023-08-08T13:34:37;3.95;;;1.02;;
72621;SDS011;60665;53.506;9.582;2023-08-08T13:37:02;6.63;;;1.23;;
72621;SDS011;60665;53.506;9.582;2023-08-08T13:39:28;8.50;;;1.25;;
72621;SDS011;60665;53.506;9.582;2023-08-08T13:41:53;3.63;;;0.90;;
72621;SDS011;60665;53.506;9.582;2023-08-08T13:44:19;6.10;;;1.15;;
72621;SDS011;60665;53.506;9.582;2023-08-08T13:46:44;6.35;;;1.13;;
72621;SDS011;60665;53.506;9.582;2023-08-08T13:49:10;7.20;;;1.00;;
72621;SDS011;60665;53.506;9.582;2023-08-08T13:51:35;3.13;;;1.10;;
72621;SDS011;60665;53.506;9.582;2023-08-08T13:54:00;6.50;;;1.83;;
72621;SDS011;60665;53.506;9.582;2023-08-08T13:56:26;5.75;;;1.02;;
72621;SDS011;60665;53.506;9.582;2023-08-08T13:58:51;4.28;;;0.75;;
72621;SDS011;60665;53.506;9.582;2023-08-08T14:01:17;4.68;;;1.23;;
72621;SDS011;60665;53.506;9.582;2023-08-08T14:03:42;3.90;;;1.00;;
72621;SDS011;60665;53.506;9.582;2023-08-08T14:06:09;7.03;;;1.00;;
72621;SDS011;60665;53.506;9.582;2023-08-08T14:08:35;3.67;;;0.82;;
72621;SDS011;60665;53.506;9.582;2023-08-08T14:11:00;7.35;;;1.20;;
72621;SDS011;60665;53.506;9.582;2023-08-08T14:13:26;3.97;;;0.95;;
72621;SDS011;60665;53.506;9.582;2023-08-08T14:15:51;10.52;;;1.38;;
72621;SDS011;60665;53.506;9.582;2023-08-08T14:18:17;5.45;;;1.77;;
72621;SDS011;60665;53.506;9.582;2023-08-08T14:20:42;7.78;;;1.45;;
72621;SDS011;60665;53.506;9.582;2023-08-08T14:23:08;5.70;;;1.13;;
72621;SDS011;60665;53.506;9.582;2023-08-08T14:25:33;5.57;;;0.90;;
72621;SDS011;60665;53.506;9.582;2023-08-08T14:27:59;6.22;;;1.10;;
72621;SDS011;60665;53.506;9.582;2023-08-08T14:30:29;4.28;;;0.68;;
72621;SDS011;60665;53.506;9.582;2023-08-08T14:32:55;7.78;;;1.10;;
72621;SDS011;60665;53.506;9.582;2023-08-08T14:35:21;3.90;;;0.90;;
72621;SDS011;60665;53.506;9.582;2023-08-08T14:37:46;5.70;;;1.05;;
72621;SDS011;60665;53.506;9.582;2023-08-08T14:40:12;6.65;;;1.20;;
72621;SDS011;60665;53.506;9.582;2023-08-08T14:42:37;4.57;;;0.85;;